Brejolandia, Brazil
Current Conditions -  °F | °C
As of 10:00 AM on Wednesday 22 Oct 2014 (Local Time) from SBQV Reporting Station
Overcast Overcast  
Wind Chill: 75°   Ceiling: 1800
Heat Index: 75°   Visibility: 6mi
Dew Point: 61°   Wind: 12mph
Humidity: 61%   Direction: 110°ESE
Pressure: 30.18"   Gusts: NA
Location:  12.48°S, 43.97°W
Report Text: SBQV 221300Z 11010KT 9999 OVC018 24/16 Q1022
Loading
Personal Weather Stations






























Interactive Weather Map
Tropical Storm Tracking
New forecast layout! Learn more

10-Day Weather Forecast

Advertisements
Track Severe Weather on mobile